createdAt,value
2023-06-17T11:09:54.063Z,85.70
2023-06-17T11:12:22.115Z,86.20
2023-06-17T11:14:50.873Z,83.30
2023-06-17T11:17:19.099Z,83.00
2023-06-17T11:19:48.722Z,83.80
2023-06-17T11:22:16.752Z,87.80
2023-06-17T11:24:46.721Z,86.90
2023-06-17T11:27:16.971Z,84.90
2023-06-17T11:29:45.980Z,85.00
2023-06-17T11:32:14.628Z,84.80
2023-06-17T11:34:43.716Z,83.10
2023-06-17T11:37:12.532Z,82.50
2023-06-17T11:39:41.118Z,86.10
2023-06-17T11:42:10.471Z,84.00
2023-06-17T11:44:40.208Z,84.90
2023-06-17T11:47:10.693Z,85.90
2023-06-17T11:49:43.683Z,86.70
2023-06-17T11:52:12.875Z,85.00
2023-06-17T11:54:46.789Z,84.00
2023-06-17T11:57:19.731Z,82.90
2023-06-17T11:59:49.252Z,83.90
2023-06-17T12:02:17.953Z,83.80
2023-06-17T12:04:46.587Z,84.10
2023-06-17T12:07:14.655Z,84.40
2023-06-17T12:09:52.101Z,82.90
2023-06-17T12:12:27.998Z,83.20
2023-06-17T12:15:10.985Z,82.90
2023-06-17T12:17:46.363Z,84.20
2023-06-17T12:20:16.654Z,83.70
2023-06-17T12:22:45.014Z,82.10
2023-06-17T12:25:13.525Z,86.70
2023-06-17T12:27:42.496Z,87.10
2023-06-17T12:30:13.385Z,86.10
2023-06-17T12:32:41.977Z,85.10
2023-06-17T12:35:13.287Z,85.40
2023-06-17T12:37:43.368Z,84.00
2023-06-17T12:40:12.802Z,83.90
2023-06-17T12:42:41.696Z,85.40
2023-06-17T12:45:14.099Z,85.70
2023-06-17T12:47:42.509Z,84.60
2023-06-17T12:50:12.361Z,83.10
2023-06-17T12:52:40.658Z,84.60
2023-06-17T12:55:09.977Z,86.50
2023-06-17T12:57:38.000Z,83.50
2023-06-17T13:00:07.477Z,85.60
2023-06-17T13:02:37.682Z,86.50
2023-06-17T13:05:06.338Z,83.60
2023-06-17T13:07:34.479Z,83.00
2023-06-17T13:10:03.170Z,84.90
2023-06-17T13:12:31.810Z,83.30
2023-06-17T13:15:00.355Z,83.10
2023-06-17T13:17:28.600Z,86.40
2023-06-17T13:19:57.944Z,86.20
2023-06-17T13:22:27.676Z,83.10
2023-06-17T13:24:55.674Z,75.60
2023-06-17T13:27:24.662Z,77.90
2023-06-17T13:29:52.694Z,80.10
2023-06-17T13:32:22.760Z,85.20
2023-06-17T13:34:50.837Z,85.60
2023-06-17T13:37:20.378Z,85.00
2023-06-17T13:39:48.328Z,83.00
2023-06-17T13:42:16.333Z,83.50
2023-06-17T13:44:45.326Z,82.20
2023-06-17T13:47:15.505Z,85.10
2023-06-17T13:49:43.914Z,83.60
2023-06-17T13:52:13.029Z,84.60
2023-06-17T13:54:42.644Z,85.60
2023-06-17T13:57:11.974Z,84.50
2023-06-17T13:59:41.566Z,86.30
2023-06-17T14:02:09.818Z,86.80
2023-06-17T14:04:37.921Z,87.30
2023-06-17T14:07:06.450Z,88.20
2023-06-17T14:09:34.437Z,87.80
2023-06-17T14:12:04.986Z,87.20
2023-06-17T14:14:32.956Z,88.00
2023-06-17T14:17:01.065Z,87.50
2023-06-17T14:19:29.469Z,90.00
2023-06-17T14:22:00.850Z,89.60
2023-06-17T14:24:28.931Z,90.00
2023-06-17T14:27:25.938Z,90.40
2023-06-17T14:29:53.960Z,90.20
2023-06-17T14:32:22.371Z,90.30
2023-06-17T14:34:51.361Z,90.80
2023-06-17T14:37:19.641Z,90.30
2023-06-17T14:39:47.707Z,90.80
2023-06-17T14:42:15.686Z,90.80
2023-06-17T14:44:45.297Z,90.60
2023-06-17T14:47:13.328Z,90.90
2023-06-17T14:49:41.389Z,91.10
2023-06-17T14:52:09.583Z,90.40
2023-06-17T14:54:37.582Z,90.40
2023-06-17T14:57:06.034Z,90.30
2023-06-17T14:59:34.121Z,90.30
2023-06-17T15:02:03.541Z,89.30
2023-06-17T15:04:31.656Z,90.10
2023-06-17T15:06:59.666Z,90.10
2023-06-17T15:09:28.640Z,89.00
2023-06-17T15:11:58.213Z,88.40
2023-06-17T15:14:27.811Z,87.00
2023-06-17T15:16:56.014Z,84.40
2023-06-17T15:19:25.656Z,85.70
2023-06-17T15:21:53.898Z,86.70
2023-06-17T15:24:22.197Z,84.40
2023-06-17T15:26:50.627Z,86.10
2023-06-17T15:29:18.678Z,83.50
2023-06-17T15:31:46.755Z,82.70
2023-06-17T15:34:14.797Z,81.30
2023-06-17T15:36:44.139Z,84.10
2023-06-17T15:39:19.615Z,82.60
2023-06-17T15:41:47.998Z,81.60
2023-06-17T15:44:16.287Z,81.20
2023-06-17T15:46:44.939Z,81.80
2023-06-17T15:49:13.819Z,81.30
2023-06-17T15:51:43.302Z,82.20
2023-06-17T15:54:11.704Z,82.70
2023-06-17T15:56:41.865Z,80.90
2023-06-17T15:59:10.060Z,80.40
2023-06-17T16:01:38.131Z,79.00
2023-06-17T16:04:34.273Z,74.50
2023-06-17T16:07:05.540Z,77.80
2023-06-17T16:09:36.044Z,79.00
2023-06-17T16:12:05.387Z,78.40
2023-06-17T16:14:34.330Z,78.90
2023-06-17T16:17:04.949Z,78.00
2023-06-17T16:19:33.210Z,80.60
2023-06-17T16:22:04.121Z,78.60
2023-06-17T16:24:32.646Z,79.70
2023-06-17T16:27:01.356Z,81.20
2023-06-17T16:29:29.475Z,79.40
2023-06-17T16:31:57.798Z,78.60
2023-06-17T16:34:25.905Z,79.20
2023-06-17T16:36:54.068Z,81.20
2023-06-17T16:39:23.569Z,81.90
2023-06-17T16:41:51.608Z,77.70
2023-06-17T16:44:19.731Z,78.60
2023-06-17T16:46:48.419Z,78.20
2023-06-17T16:49:16.773Z,77.20
2023-06-17T16:51:45.082Z,77.30
2023-06-17T16:54:13.541Z,78.00
2023-06-17T16:56:43.399Z,76.60
2023-06-17T16:59:11.848Z,78.00
2023-06-17T17:01:41.691Z,78.90
2023-06-17T17:04:12.086Z,78.30
2023-06-17T17:06:40.823Z,78.80
2023-06-17T17:09:09.370Z,78.50
2023-06-17T17:11:37.586Z,79.40
2023-06-17T17:14:07.477Z,82.20
2023-06-17T17:16:36.423Z,82.90
2023-06-17T17:19:05.650Z,84.30
2023-06-17T17:21:35.024Z,84.60
2023-06-17T17:24:05.888Z,85.00
2023-06-17T17:26:34.530Z,85.80
2023-06-17T17:29:03.587Z,85.80
2023-06-17T17:31:33.126Z,86.60
2023-06-17T17:34:02.256Z,86.60
2023-06-17T17:36:30.511Z,85.90
2023-06-17T17:38:58.608Z,86.40
2023-06-17T17:41:27.228Z,86.30
2023-06-17T17:43:55.507Z,86.90
2023-06-17T17:46:23.638Z,86.20
2023-06-17T17:48:53.319Z,85.30
2023-06-17T17:51:21.411Z,85.60
2023-06-17T17:53:49.548Z,85.80
2023-06-17T17:56:18.428Z,85.50
2023-06-17T17:58:47.588Z,86.10
2023-06-17T18:01:15.909Z,85.20
2023-06-17T18:03:44.110Z,85.30
2023-06-17T18:06:14.067Z,85.40
2023-06-17T18:08:42.115Z,86.40
2023-06-17T18:11:10.317Z,87.80
2023-06-17T18:13:38.511Z,88.20
2023-06-17T18:16:07.512Z,88.30
2023-06-17T18:18:35.784Z,88.10
2023-06-17T18:21:04.007Z,87.50
2023-06-17T18:23:33.323Z,88.00
2023-06-17T18:26:01.636Z,88.10
2023-06-17T18:28:29.616Z,88.00
2023-06-17T18:30:57.583Z,88.10
2023-06-17T18:33:25.775Z,88.90
2023-06-17T18:35:53.799Z,88.90
2023-06-17T18:38:21.780Z,90.10
2023-06-17T18:40:51.103Z,90.40
2023-06-17T18:43:21.631Z,90.80
2023-06-17T18:45:50.300Z,90.80
2023-06-17T18:48:18.373Z,90.90
2023-06-17T18:50:46.875Z,91.00
2023-06-17T18:53:14.902Z,91.00
2023-06-17T18:55:42.960Z,91.00
2023-06-17T18:58:12.358Z,91.00
2023-06-17T19:00:41.533Z,91.10
2023-06-17T19:03:09.928Z,91.00
2023-06-17T19:05:39.574Z,91.00
2023-06-17T19:08:07.568Z,90.90
2023-06-17T19:10:35.666Z,91.10
2023-06-17T19:13:04.552Z,91.00
2023-06-17T19:15:34.493Z,91.00
2023-06-17T19:18:02.756Z,91.10
2023-06-17T19:20:30.820Z,91.20
2023-06-17T19:22:58.770Z,91.40
2023-06-17T19:25:28.266Z,91.50
2023-06-17T19:27:56.350Z,91.40
2023-06-17T19:30:24.936Z,91.90
2023-06-17T19:32:54.518Z,92.00
2023-06-17T19:35:22.705Z,92.10
2023-06-17T19:37:50.648Z,92.30
2023-06-17T19:40:18.755Z,92.30
2023-06-17T19:42:46.905Z,92.60
2023-06-17T19:45:15.646Z,92.70
2023-06-17T19:47:43.704Z,92.50
2023-06-17T19:50:13.344Z,92.90
2023-06-17T19:52:41.392Z,92.80
2023-06-17T19:55:10.047Z,92.80
2023-06-17T19:57:38.003Z,92.80
2023-06-17T20:00:07.084Z,92.80
2023-06-17T20:02:35.257Z,92.90
2023-06-17T20:05:03.932Z,92.90
2023-06-17T20:07:33.231Z,93.00
2023-06-17T20:10:01.257Z,93.20
2023-06-17T20:12:29.195Z,93.10
2023-06-17T20:14:57.268Z,93.20
2023-06-17T20:17:25.828Z,93.20
2023-06-17T20:19:56.419Z,93.20
2023-06-17T20:22:24.996Z,93.20
2023-06-17T20:24:54.522Z,93.20
2023-06-17T20:27:23.064Z,93.30
2023-06-17T20:29:51.166Z,93.60
2023-06-17T20:32:20.497Z,93.70
2023-06-17T20:34:48.843Z,93.60
2023-06-17T20:37:17.683Z,94.00
2023-06-17T20:39:45.740Z,94.10
2023-06-17T20:42:15.088Z,94.00
2023-06-17T20:44:43.362Z,94.30
2023-06-17T20:47:11.753Z,95.10
2023-06-17T20:49:39.883Z,94.90
2023-06-17T20:52:08.357Z,94.40
2023-06-17T20:54:36.451Z,94.40
2023-06-17T20:57:04.863Z,94.60
2023-06-17T20:59:34.199Z,94.60
2023-06-17T21:02:02.219Z,94.70
2023-06-17T21:04:30.458Z,94.90
2023-06-17T21:06:58.461Z,94.90
2023-06-17T21:09:26.960Z,94.90
2023-06-17T21:11:55.031Z,94.90
2023-06-17T21:14:23.024Z,94.80
2023-06-17T21:16:53.779Z,94.90
2023-06-17T21:19:21.929Z,94.80
2023-06-17T21:21:50.022Z,94.90
2023-06-17T21:24:19.544Z,94.70
2023-06-17T21:26:47.545Z,94.70
2023-06-17T21:29:15.615Z,94.80
2023-06-17T21:31:43.597Z,94.90
2023-06-17T21:34:12.996Z,95.30
2023-06-17T21:36:41.526Z,95.10
2023-06-17T21:39:09.518Z,94.90
2023-06-17T21:41:37.517Z,95.00
2023-06-17T21:44:05.860Z,95.10
2023-06-17T21:46:34.257Z,95.00
2023-06-17T21:49:02.476Z,95.00
2023-06-17T21:51:32.039Z,95.10
2023-06-17T21:54:00.133Z,95.00
2023-06-17T21:56:28.693Z,95.10
2023-06-17T21:58:56.704Z,95.30
2023-06-17T22:01:24.782Z,95.50
2023-06-17T22:03:53.172Z,95.40
2023-06-17T22:06:21.360Z,95.80
2023-06-17T22:08:50.705Z,95.90
2023-06-17T22:11:18.788Z,95.80
2023-06-17T22:13:46.800Z,95.90
2023-06-17T22:16:14.805Z,95.70
2023-06-17T22:18:42.944Z,95.40
2023-06-17T22:21:11.087Z,95.30
2023-06-17T22:23:39.079Z,95.50
2023-06-17T22:26:08.431Z,95.30
2023-06-17T22:28:36.605Z,95.30
2023-06-17T22:31:04.575Z,95.50
2023-06-17T22:33:32.562Z,95.70
2023-06-17T22:36:00.739Z,95.50
2023-06-17T22:38:28.688Z,95.70
2023-06-17T22:40:56.682Z,95.80
2023-06-17T22:43:26.033Z,95.90
2023-06-17T22:45:54.037Z,95.80
2023-06-17T22:48:22.104Z,95.90
2023-06-17T22:50:50.432Z,96.00
2023-06-17T22:53:19.209Z,96.00
2023-06-17T22:55:47.166Z,96.20
2023-06-17T22:58:15.572Z,96.20
2023-06-17T23:00:44.914Z,95.90
2023-06-17T23:03:13.008Z,95.70
2023-06-17T23:05:41.053Z,95.90
2023-06-17T23:08:09.070Z,95.90
2023-06-17T23:10:37.100Z,95.70
2023-06-17T23:13:05.167Z,95.80
2023-06-17T23:15:34.196Z,96.00
2023-06-17T23:18:03.651Z,96.20
2023-06-17T23:20:31.655Z,96.10
2023-06-17T23:22:59.641Z,96.10
2023-06-17T23:25:28.067Z,96.10
2023-06-17T23:27:57.643Z,95.90
2023-06-17T23:30:26.440Z,96.10
2023-06-17T23:32:54.456Z,96.20
2023-06-17T23:38:15.653Z,96.30
2023-06-17T23:40:43.708Z,96.30
2023-06-17T23:43:11.661Z,96.20
2023-06-17T23:45:41.154Z,96.30
2023-06-17T23:48:09.255Z,96.20
2023-06-17T23:50:38.739Z,96.40
2023-06-17T23:53:07.058Z,96.30
2023-06-17T23:55:35.010Z,96.40
2023-06-17T23:58:06.984Z,96.30
